sensor_id;sensor_type;location;lat;lon;timestamp;temperature;humidity
15937;DHT22;9163;48.818;8.976;2023-05-07T00:00:11;13.20;99.90
15937;DHT22;9163;48.818;8.976;2023-05-07T00:02:42;13.20;99.90
15937;DHT22;9163;48.818;8.976;2023-05-07T00:05:10;13.20;99.90
15937;DHT22;9163;48.818;8.976;2023-05-07T00:07:37;13.20;99.90
15937;DHT22;9163;48.818;8.976;2023-05-07T00:10:06;13.20;99.90
15937;DHT22;9163;48.818;8.976;2023-05-07T00:12:33;13.30;99.90
15937;DHT22;9163;48.818;8.976;2023-05-07T00:15:01;13.30;99.90
15937;DHT22;9163;48.818;8.976;2023-05-07T00:17:28;13.40;99.90
15937;DHT22;9163;48.818;8.976;2023-05-07T00:19:57;13.40;99.90
15937;DHT22;9163;48.818;8.976;2023-05-07T00:22:24;13.40;99.90
15937;DHT22;9163;48.818;8.976;2023-05-07T00:24:52;13.40;99.90
15937;DHT22;9163;48.818;8.976;2023-05-07T00:27:19;13.40;99.90
15937;DHT22;9163;48.818;8.976;2023-05-07T00:29:46;13.30;99.90
15937;DHT22;9163;48.818;8.976;2023-05-07T00:32:13;13.20;99.90
15937;DHT22;9163;48.818;8.976;2023-05-07T00:34:40;13.10;99.90
15937;DHT22;9163;48.818;8.976;2023-05-07T00:37:09;13.10;99.90
15937;DHT22;9163;48.818;8.976;2023-05-07T00:39:37;13.10;99.90
15937;DHT22;9163;48.818;8.976;2023-05-07T00:42:05;13.10;99.90
15937;DHT22;9163;48.818;8.976;2023-05-07T00:44:32;13.00;99.90
15937;DHT22;9163;48.818;8.976;2023-05-07T00:47:02;13.00;99.90
15937;DHT22;9163;48.818;8.976;2023-05-07T00:49:37;12.90;99.90
15937;DHT22;9163;48.818;8.976;2023-05-07T00:52:05;12.80;99.90
15937;DHT22;9163;48.818;8.976;2023-05-07T00:54:34;12.70;99.90
15937;DHT22;9163;48.818;8.976;2023-05-07T00:57:02;12.70;99.90
15937;DHT22;9163;48.818;8.976;2023-05-07T00:59:31;12.60;99.90
15937;DHT22;9163;48.818;8.976;2023-05-07T01:01:58;12.60;99.90
15937;DHT22;9163;48.818;8.976;2023-05-07T01:04:26;12.60;99.90
15937;DHT22;9163;48.818;8.976;2023-05-07T01:06:54;12.50;99.90
15937;DHT22;9163;48.818;8.976;2023-05-07T01:09:23;12.50;99.90
15937;DHT22;9163;48.818;8.976;2023-05-07T01:11:52;12.50;99.90
15937;DHT22;9163;48.818;8.976;2023-05-07T01:14:20;12.50;99.90
15937;DHT22;9163;48.818;8.976;2023-05-07T01:16:47;12.50;99.90
15937;DHT22;9163;48.818;8.976;2023-05-07T01:19:18;12.50;99.90
15937;DHT22;9163;48.818;8.976;2023-05-07T01:21:47;12.50;99.90
15937;DHT22;9163;48.818;8.976;2023-05-07T01:24:16;12.40;99.90
15937;DHT22;9163;48.818;8.976;2023-05-07T01:26:43;12.40;99.90
15937;DHT22;9163;48.818;8.976;2023-05-07T01:29:11;12.40;99.90
15937;DHT22;9163;48.818;8.976;2023-05-07T01:31:39;12.40;99.90
15937;DHT22;9163;48.818;8.976;2023-05-07T01:34:08;12.40;99.90
15937;DHT22;9163;48.818;8.976;2023-05-07T01:36:37;12.30;99.90
15937;DHT22;9163;48.818;8.976;2023-05-07T01:39:06;12.30;99.90
15937;DHT22;9163;48.818;8.976;2023-05-07T01:41:35;12.30;99.90
15937;DHT22;9163;48.818;8.976;2023-05-07T01:44:03;12.30;99.90
15937;DHT22;9163;48.818;8.976;2023-05-07T01:46:31;12.30;99.90
15937;DHT22;9163;48.818;8.976;2023-05-07T01:48:59;12.30;99.90
15937;DHT22;9163;48.818;8.976;2023-05-07T01:51:26;12.30;99.90
15937;DHT22;9163;48.818;8.976;2023-05-07T01:53:54;12.30;99.90
15937;DHT22;9163;48.818;8.976;2023-05-07T01:56:22;12.30;99.90
15937;DHT22;9163;48.818;8.976;2023-05-07T01:58:51;12.30;99.90
15937;DHT22;9163;48.818;8.976;2023-05-07T02:01:18;12.30;99.90
15937;DHT22;9163;48.818;8.976;2023-05-07T02:03:46;12.40;99.90
15937;DHT22;9163;48.818;8.976;2023-05-07T02:06:13;12.40;99.90
15937;DHT22;9163;48.818;8.976;2023-05-07T02:08:40;12.40;99.90
15937;DHT22;9163;48.818;8.976;2023-05-07T02:11:07;12.40;99.90
15937;DHT22;9163;48.818;8.976;2023-05-07T02:13:35;12.50;99.90
15937;DHT22;9163;48.818;8.976;2023-05-07T02:16:04;12.50;99.90
15937;DHT22;9163;48.818;8.976;2023-05-07T02:18:31;12.60;99.90
15937;DHT22;9163;48.818;8.976;2023-05-07T02:20:59;12.50;99.90
15937;DHT22;9163;48.818;8.976;2023-05-07T02:23:26;12.50;99.90
15937;DHT22;9163;48.818;8.976;2023-05-07T02:25:53;12.50;99.90
15937;DHT22;9163;48.818;8.976;2023-05-07T02:28:20;12.40;99.90
15937;DHT22;9163;48.818;8.976;2023-05-07T02:30:47;12.40;99.90
15937;DHT22;9163;48.818;8.976;2023-05-07T02:33:16;12.40;99.90
15937;DHT22;9163;48.818;8.976;2023-05-07T02:35:43;12.30;99.90
15937;DHT22;9163;48.818;8.976;2023-05-07T02:38:10;12.40;99.90
15937;DHT22;9163;48.818;8.976;2023-05-07T02:40:38;12.40;99.90
15937;DHT22;9163;48.818;8.976;2023-05-07T02:43:05;12.40;99.90
15937;DHT22;9163;48.818;8.976;2023-05-07T02:45:33;12.40;99.90
15937;DHT22;9163;48.818;8.976;2023-05-07T02:48:00;12.30;99.90
15937;DHT22;9163;48.818;8.976;2023-05-07T02:50:29;12.30;99.90
15937;DHT22;9163;48.818;8.976;2023-05-07T02:52:56;12.30;99.90
15937;DHT22;9163;48.818;8.976;2023-05-07T02:55:23;12.20;99.90
15937;DHT22;9163;48.818;8.976;2023-05-07T02:57:50;12.20;99.90
15937;DHT22;9163;48.818;8.976;2023-05-07T03:00:19;12.10;99.90
15937;DHT22;9163;48.818;8.976;2023-05-07T03:02:46;12.10;99.90
15937;DHT22;9163;48.818;8.976;2023-05-07T03:05:13;12.00;99.90
15937;DHT22;9163;48.818;8.976;2023-05-07T03:07:42;11.90;99.90
15937;DHT22;9163;48.818;8.976;2023-05-07T03:10:11;11.80;99.90
15937;DHT22;9163;48.818;8.976;2023-05-07T03:12:38;11.70;99.90
15937;DHT22;9163;48.818;8.976;2023-05-07T03:15:06;11.60;99.90
15937;DHT22;9163;48.818;8.976;2023-05-07T03:17:34;11.60;99.90
15937;DHT22;9163;48.818;8.976;2023-05-07T03:20:01;11.60;99.90
15937;DHT22;9163;48.818;8.976;2023-05-07T03:22:28;11.60;99.90
15937;DHT22;9163;48.818;8.976;2023-05-07T03:24:57;11.60;99.90
15937;DHT22;9163;48.818;8.976;2023-05-07T03:27:24;11.60;99.90
15937;DHT22;9163;48.818;8.976;2023-05-07T03:29:51;11.60;99.90
15937;DHT22;9163;48.818;8.976;2023-05-07T03:32:18;11.50;99.90
15937;DHT22;9163;48.818;8.976;2023-05-07T03:34:46;11.50;99.90
15937;DHT22;9163;48.818;8.976;2023-05-07T03:37:13;11.50;99.90
15937;DHT22;9163;48.818;8.976;2023-05-07T03:39:40;11.50;99.90
15937;DHT22;9163;48.818;8.976;2023-05-07T03:42:09;11.50;99.90
15937;DHT22;9163;48.818;8.976;2023-05-07T03:44:36;11.40;99.90
15937;DHT22;9163;48.818;8.976;2023-05-07T03:47:03;11.50;99.90
15937;DHT22;9163;48.818;8.976;2023-05-07T03:49:31;11.40;99.90
15937;DHT22;9163;48.818;8.976;2023-05-07T03:51:58;11.50;99.90
15937;DHT22;9163;48.818;8.976;2023-05-07T03:54:25;11.50;99.90
15937;DHT22;9163;48.818;8.976;2023-05-07T03:56:52;11.50;99.90
15937;DHT22;9163;48.818;8.976;2023-05-07T03:59:21;11.50;99.90
15937;DHT22;9163;48.818;8.976;2023-05-07T04:01:49;11.40;99.90
15937;DHT22;9163;48.818;8.976;2023-05-07T04:04:16;11.40;99.90
15937;DHT22;9163;48.818;8.976;2023-05-07T04:06:43;11.40;99.90
15937;DHT22;9163;48.818;8.976;2023-05-07T04:09:10;11.40;99.90
15937;DHT22;9163;48.818;8.976;2023-05-07T04:11:37;11.30;99.90
15937;DHT22;9163;48.818;8.976;2023-05-07T04:14:06;11.30;99.90
15937;DHT22;9163;48.818;8.976;2023-05-07T04:16:35;11.40;99.90
15937;DHT22;9163;48.818;8.976;2023-05-07T04:19:03;11.40;99.90
15937;DHT22;9163;48.818;8.976;2023-05-07T04:21:30;11.40;99.90
15937;DHT22;9163;48.818;8.976;2023-05-07T04:23:57;11.40;99.90
15937;DHT22;9163;48.818;8.976;2023-05-07T04:26:24;11.40;99.90
15937;DHT22;9163;48.818;8.976;2023-05-07T04:28:51;11.40;99.90
15937;DHT22;9163;48.818;8.976;2023-05-07T04:31:18;11.50;99.90
15937;DHT22;9163;48.818;8.976;2023-05-07T04:33:47;11.40;99.90
15937;DHT22;9163;48.818;8.976;2023-05-07T04:36:14;11.50;99.90
15937;DHT22;9163;48.818;8.976;2023-05-07T04:38:42;11.50;99.90
15937;DHT22;9163;48.818;8.976;2023-05-07T04:41:09;11.60;99.90
15937;DHT22;9163;48.818;8.976;2023-05-07T04:43:37;11.60;99.90
15937;DHT22;9163;48.818;8.976;2023-05-07T04:46:04;11.70;99.90
15937;DHT22;9163;48.818;8.976;2023-05-07T04:48:31;11.70;99.90
15937;DHT22;9163;48.818;8.976;2023-05-07T04:51:00;11.70;99.90
15937;DHT22;9163;48.818;8.976;2023-05-07T04:53:27;11.80;99.90
15937;DHT22;9163;48.818;8.976;2023-05-07T04:55:57;11.80;99.90
15937;DHT22;9163;48.818;8.976;2023-05-07T04:58:25;11.80;99.90
15937;DHT22;9163;48.818;8.976;2023-05-07T05:00:53;11.80;99.90
15937;DHT22;9163;48.818;8.976;2023-05-07T05:03:20;11.80;99.90
15937;DHT22;9163;48.818;8.976;2023-05-07T05:05:49;11.80;99.90
15937;DHT22;9163;48.818;8.976;2023-05-07T05:08:17;11.80;99.90
15937;DHT22;9163;48.818;8.976;2023-05-07T05:10:44;11.90;99.90
15937;DHT22;9163;48.818;8.976;2023-05-07T05:13:14;11.90;99.90
15937;DHT22;9163;48.818;8.976;2023-05-07T05:15:41;12.00;99.90
15937;DHT22;9163;48.818;8.976;2023-05-07T05:18:08;12.00;99.90
15937;DHT22;9163;48.818;8.976;2023-05-07T05:20:36;12.20;99.90
15937;DHT22;9163;48.818;8.976;2023-05-07T05:23:03;12.00;99.90
15937;DHT22;9163;48.818;8.976;2023-05-07T05:25:31;12.20;99.90
15937;DHT22;9163;48.818;8.976;2023-05-07T05:27:59;12.30;99.90
15937;DHT22;9163;48.818;8.976;2023-05-07T05:30:26;12.40;99.90
15937;DHT22;9163;48.818;8.976;2023-05-07T05:32:53;12.60;99.90
15937;DHT22;9163;48.818;8.976;2023-05-07T05:35:20;12.80;99.90
15937;DHT22;9163;48.818;8.976;2023-05-07T05:37:48;12.90;99.90
15937;DHT22;9163;48.818;8.976;2023-05-07T05:40:15;13.10;99.90
15937;DHT22;9163;48.818;8.976;2023-05-07T05:42:43;13.20;99.90
15937;DHT22;9163;48.818;8.976;2023-05-07T05:45:11;13.50;99.90
15937;DHT22;9163;48.818;8.976;2023-05-07T05:47:38;13.60;99.90
15937;DHT22;9163;48.818;8.976;2023-05-07T05:50:07;13.50;99.90
15937;DHT22;9163;48.818;8.976;2023-05-07T05:52:35;13.20;99.90
15937;DHT22;9163;48.818;8.976;2023-05-07T05:55:02;13.40;99.90
15937;DHT22;9163;48.818;8.976;2023-05-07T05:57:29;13.80;99.90
15937;DHT22;9163;48.818;8.976;2023-05-07T05:59:58;14.10;99.90
15937;DHT22;9163;48.818;8.976;2023-05-07T06:02:26;14.30;99.90
15937;DHT22;9163;48.818;8.976;2023-05-07T06:04:53;14.30;99.90
15937;DHT22;9163;48.818;8.976;2023-05-07T06:07:20;14.20;99.90
15937;DHT22;9163;48.818;8.976;2023-05-07T06:09:47;14.40;99.90
15937;DHT22;9163;48.818;8.976;2023-05-07T06:12:14;14.50;99.90
15937;DHT22;9163;48.818;8.976;2023-05-07T06:14:42;14.70;99.90
15937;DHT22;9163;48.818;8.976;2023-05-07T06:17:11;14.80;99.90
15937;DHT22;9163;48.818;8.976;2023-05-07T06:19:38;14.90;99.90
15937;DHT22;9163;48.818;8.976;2023-05-07T06:22:05;14.90;99.90
15937;DHT22;9163;48.818;8.976;2023-05-07T06:24:33;14.90;99.90
15937;DHT22;9163;48.818;8.976;2023-05-07T06:27:00;15.20;99.90
15937;DHT22;9163;48.818;8.976;2023-05-07T06:29:27;15.30;99.90
15937;DHT22;9163;48.818;8.976;2023-05-07T06:31:56;15.60;99.90
15937;DHT22;9163;48.818;8.976;2023-05-07T06:34:24;15.80;99.90
15937;DHT22;9163;48.818;8.976;2023-05-07T06:36:51;16.00;99.90
15937;DHT22;9163;48.818;8.976;2023-05-07T06:39:19;16.30;99.90
15937;DHT22;9163;48.818;8.976;2023-05-07T06:41:46;16.40;99.90
15937;DHT22;9163;48.818;8.976;2023-05-07T06:44:13;16.70;99.90
15937;DHT22;9163;48.818;8.976;2023-05-07T06:46:41;16.90;99.90
15937;DHT22;9163;48.818;8.976;2023-05-07T06:49:08;16.90;98.30
15937;DHT22;9163;48.818;8.976;2023-05-07T06:51:37;16.90;99.90
15937;DHT22;9163;48.818;8.976;2023-05-07T06:54:04;16.70;99.90
15937;DHT22;9163;48.818;8.976;2023-05-07T06:56:32;17.00;99.90
15937;DHT22;9163;48.818;8.976;2023-05-07T06:58:59;17.20;99.90
15937;DHT22;9163;48.818;8.976;2023-05-07T07:01:27;17.50;99.90
15937;DHT22;9163;48.818;8.976;2023-05-07T07:03:54;17.50;93.90
15937;DHT22;9163;48.818;8.976;2023-05-07T07:06:22;17.80;99.40
15937;DHT22;9163;48.818;8.976;2023-05-07T07:08:50;17.80;86.00
15937;DHT22;9163;48.818;8.976;2023-05-07T07:11:17;17.70;88.30
15937;DHT22;9163;48.818;8.976;2023-05-07T07:13:44;17.70;93.70
15937;DHT22;9163;48.818;8.976;2023-05-07T07:16:12;17.90;76.60
15937;DHT22;9163;48.818;8.976;2023-05-07T07:18:39;18.20;78.00
15937;DHT22;9163;48.818;8.976;2023-05-07T07:21:06;18.50;61.70
15937;DHT22;9163;48.818;8.976;2023-05-07T07:23:33;18.50;53.60
15937;DHT22;9163;48.818;8.976;2023-05-07T07:26:02;18.60;49.10
15937;DHT22;9163;48.818;8.976;2023-05-07T07:28:29;19.00;60.80
15937;DHT22;9163;48.818;8.976;2023-05-07T07:30:56;19.20;46.00
15937;DHT22;9163;48.818;8.976;2023-05-07T07:33:23;19.40;48.80
15937;DHT22;9163;48.818;8.976;2023-05-07T07:35:51;19.20;44.00
15937;DHT22;9163;48.818;8.976;2023-05-07T07:38:18;19.50;49.00
15937;DHT22;9163;48.818;8.976;2023-05-07T07:40:47;19.60;36.70
15937;DHT22;9163;48.818;8.976;2023-05-07T07:43:15;19.70;48.50
15937;DHT22;9163;48.818;8.976;2023-05-07T07:45:42;19.80;54.70
15937;DHT22;9163;48.818;8.976;2023-05-07T07:48:11;19.80;38.80
15937;DHT22;9163;48.818;8.976;2023-05-07T07:50:38;19.90;47.10
15937;DHT22;9163;48.818;8.976;2023-05-07T07:53:06;20.00;53.80
15937;DHT22;9163;48.818;8.976;2023-05-07T07:55:38;20.00;45.70
15937;DHT22;9163;48.818;8.976;2023-05-07T07:58:05;19.90;36.60
15937;DHT22;9163;48.818;8.976;2023-05-07T08:00:33;19.90;51.00
15937;DHT22;9163;48.818;8.976;2023-05-07T08:03:01;20.10;41.10
15937;DHT22;9163;48.818;8.976;2023-05-07T08:05:29;20.10;32.40
15937;DHT22;9163;48.818;8.976;2023-05-07T08:07:56;20.40;33.50
15937;DHT22;9163;48.818;8.976;2023-05-07T08:10:24;20.60;32.30
15937;DHT22;9163;48.818;8.976;2023-05-07T08:12:51;20.80;7.20
15937;DHT22;9163;48.818;8.976;2023-05-07T08:15:18;21.00;3.10
15937;DHT22;9163;48.818;8.976;2023-05-07T08:17:47;21.30;1.00
15937;DHT22;9163;48.818;8.976;2023-05-07T08:20:14;21.40;1.00
15937;DHT22;9163;48.818;8.976;2023-05-07T08:22:41;21.30;1.00
15937;DHT22;9163;48.818;8.976;2023-05-07T08:25:09;21.40;1.00
15937;DHT22;9163;48.818;8.976;2023-05-07T08:27:36;21.60;1.00
15937;DHT22;9163;48.818;8.976;2023-05-07T08:30:04;21.60;1.00
15937;DHT22;9163;48.818;8.976;2023-05-07T08:32:32;22.00;1.00
15937;DHT22;9163;48.818;8.976;2023-05-07T08:35:00;22.40;1.00
15937;DHT22;9163;48.818;8.976;2023-05-07T08:37:27;22.70;1.00
15937;DHT22;9163;48.818;8.976;2023-05-07T08:39:54;23.00;1.00
15937;DHT22;9163;48.818;8.976;2023-05-07T08:42:23;23.50;1.00
15937;DHT22;9163;48.818;8.976;2023-05-07T08:44:51;23.70;1.00
15937;DHT22;9163;48.818;8.976;2023-05-07T08:47:21;23.60;1.00
15937;DHT22;9163;48.818;8.976;2023-05-07T08:49:49;23.60;1.00
15937;DHT22;9163;48.818;8.976;2023-05-07T08:52:18;23.90;1.00
15937;DHT22;9163;48.818;8.976;2023-05-07T08:54:46;24.20;1.00
15937;DHT22;9163;48.818;8.976;2023-05-07T08:57:13;24.50;1.00
15937;DHT22;9163;48.818;8.976;2023-05-07T08:59:41;24.90;1.00
15937;DHT22;9163;48.818;8.976;2023-05-07T09:02:10;25.40;1.00
15937;DHT22;9163;48.818;8.976;2023-05-07T09:04:38;25.70;11.90
15937;DHT22;9163;48.818;8.976;2023-05-07T09:07:05;25.90;1.00
15937;DHT22;9163;48.818;8.976;2023-05-07T09:09:34;26.30;1.00
15937;DHT22;9163;48.818;8.976;2023-05-07T09:12:01;26.50;1.00
15937;DHT22;9163;48.818;8.976;2023-05-07T09:14:29;26.90;1.00
15937;DHT22;9163;48.818;8.976;2023-05-07T09:16:57;27.00;1.00
15937;DHT22;9163;48.818;8.976;2023-05-07T09:19:24;27.20;1.00
15937;DHT22;9163;48.818;8.976;2023-05-07T09:21:58;27.50;1.00
15937;DHT22;9163;48.818;8.976;2023-05-07T09:24:25;27.50;1.00
15937;DHT22;9163;48.818;8.976;2023-05-07T09:26:57;27.50;1.00
15937;DHT22;9163;48.818;8.976;2023-05-07T09:29:25;28.00;1.00
15937;DHT22;9163;48.818;8.976;2023-05-07T09:31:54;28.20;1.00
15937;DHT22;9163;48.818;8.976;2023-05-07T09:34:22;28.30;1.00
15937;DHT22;9163;48.818;8.976;2023-05-07T09:36:49;28.70;1.00
15937;DHT22;9163;48.818;8.976;2023-05-07T09:39:16;28.90;1.00
15937;DHT22;9163;48.818;8.976;2023-05-07T09:41:44;28.40;1.00
15937;DHT22;9163;48.818;8.976;2023-05-07T09:44:14;28.90;1.00
15937;DHT22;9163;48.818;8.976;2023-05-07T09:46:43;29.30;1.00
15937;DHT22;9163;48.818;8.976;2023-05-07T09:49:16;29.60;1.00
15937;DHT22;9163;48.818;8.976;2023-05-07T09:51:48;29.90;1.00
15937;DHT22;9163;48.818;8.976;2023-05-07T09:54:16;30.30;1.00
15937;DHT22;9163;48.818;8.976;2023-05-07T09:56:43;30.40;1.00
15937;DHT22;9163;48.818;8.976;2023-05-07T09:59:14;29.90;1.00
15937;DHT22;9163;48.818;8.976;2023-05-07T10:01:43;30.10;1.00
15937;DHT22;9163;48.818;8.976;2023-05-07T10:04:11;30.00;1.00
15937;DHT22;9163;48.818;8.976;2023-05-07T10:06:38;30.50;1.00
15937;DHT22;9163;48.818;8.976;2023-05-07T10:09:06;30.30;1.00
15937;DHT22;9163;48.818;8.976;2023-05-07T10:11:34;30.20;1.00
15937;DHT22;9163;48.818;8.976;2023-05-07T10:14:01;29.60;1.00
15937;DHT22;9163;48.818;8.976;2023-05-07T10:16:31;29.30;1.00
15937;DHT22;9163;48.818;8.976;2023-05-07T10:19:02;28.80;1.00
15937;DHT22;9163;48.818;8.976;2023-05-07T10:21:30;28.40;1.00
15937;DHT22;9163;48.818;8.976;2023-05-07T10:24:03;28.20;1.00
15937;DHT22;9163;48.818;8.976;2023-05-07T10:26:32;28.00;1.00
15937;DHT22;9163;48.818;8.976;2023-05-07T10:29:05;27.70;1.00
15937;DHT22;9163;48.818;8.976;2023-05-07T10:31:53;27.50;1.00
15937;DHT22;9163;48.818;8.976;2023-05-07T10:34:24;27.20;1.00
15937;DHT22;9163;48.818;8.976;2023-05-07T10:36:54;27.00;1.00
15937;DHT22;9163;48.818;8.976;2023-05-07T10:39:23;27.10;1.00
15937;DHT22;9163;48.818;8.976;2023-05-07T10:41:50;27.00;1.00
15937;DHT22;9163;48.818;8.976;2023-05-07T10:44:27;27.10;1.00
15937;DHT22;9163;48.818;8.976;2023-05-07T10:47:09;27.10;1.00
15937;DHT22;9163;48.818;8.976;2023-05-07T10:49:38;26.80;1.00
15937;DHT22;9163;48.818;8.976;2023-05-07T10:52:25;26.70;1.00
15937;DHT22;9163;48.818;8.976;2023-05-07T10:55:19;26.70;1.00
15937;DHT22;9163;48.818;8.976;2023-05-07T10:57:47;26.50;1.00
15937;DHT22;9163;48.818;8.976;2023-05-07T11:00:42;26.30;1.00
15937;DHT22;9163;48.818;8.976;2023-05-07T11:03:11;26.20;1.00
15937;DHT22;9163;48.818;8.976;2023-05-07T11:05:41;25.90;1.00
15937;DHT22;9163;48.818;8.976;2023-05-07T11:08:09;25.80;1.00
15937;DHT22;9163;48.818;8.976;2023-05-07T11:10:50;25.70;1.00
15937;DHT22;9163;48.818;8.976;2023-05-07T11:13:19;25.60;1.00
15937;DHT22;9163;48.818;8.976;2023-05-07T11:16:16;25.30;1.00
15937;DHT22;9163;48.818;8.976;2023-05-07T11:18:49;25.00;1.00
15937;DHT22;9163;48.818;8.976;2023-05-07T11:21:34;24.80;1.00
15937;DHT22;9163;48.818;8.976;2023-05-07T11:24:02;24.60;1.00
15937;DHT22;9163;48.818;8.976;2023-05-07T11:26:31;24.50;1.00
15937;DHT22;9163;48.818;8.976;2023-05-07T11:29:11;24.50;1.00
15937;DHT22;9163;48.818;8.976;2023-05-07T11:31:40;24.40;1.00
15937;DHT22;9163;48.818;8.976;2023-05-07T11:34:09;24.30;1.00
15937;DHT22;9163;48.818;8.976;2023-05-07T11:36:41;24.10;1.00
15937;DHT22;9163;48.818;8.976;2023-05-07T11:39:29;23.90;1.00
15937;DHT22;9163;48.818;8.976;2023-05-07T11:41:57;23.70;1.00
15937;DHT22;9163;48.818;8.976;2023-05-07T11:44:24;23.60;1.00
15937;DHT22;9163;48.818;8.976;2023-05-07T11:46:51;23.50;1.00
15937;DHT22;9163;48.818;8.976;2023-05-07T11:49:20;23.40;1.00
15937;DHT22;9163;48.818;8.976;2023-05-07T11:51:47;23.40;1.00
15937;DHT22;9163;48.818;8.976;2023-05-07T11:54:17;23.40;1.00
15937;DHT22;9163;48.818;8.976;2023-05-07T11:56:45;23.40;1.00
15937;DHT22;9163;48.818;8.976;2023-05-07T11:59:17;23.30;1.00
15937;DHT22;9163;48.818;8.976;2023-05-07T12:01:46;23.40;1.00
15937;DHT22;9163;48.818;8.976;2023-05-07T12:04:14;23.20;1.00
15937;DHT22;9163;48.818;8.976;2023-05-07T12:06:42;23.20;1.00
15937;DHT22;9163;48.818;8.976;2023-05-07T12:09:09;23.20;1.00
15937;DHT22;9163;48.818;8.976;2023-05-07T12:11:37;23.10;1.00
15937;DHT22;9163;48.818;8.976;2023-05-07T12:14:06;22.50;1.00
15937;DHT22;9163;48.818;8.976;2023-05-07T12:16:33;21.80;1.00
15937;DHT22;9163;48.818;8.976;2023-05-07T12:19:01;21.40;1.00
15937;DHT22;9163;48.818;8.976;2023-05-07T12:21:29;20.50;1.00
15937;DHT22;9163;48.818;8.976;2023-05-07T12:23:58;20.00;1.00
15937;DHT22;9163;48.818;8.976;2023-05-07T12:26:25;19.60;19.90
15937;DHT22;9163;48.818;8.976;2023-05-07T12:28:52;19.40;48.80
15937;DHT22;9163;48.818;8.976;2023-05-07T12:31:20;19.00;77.00
15937;DHT22;9163;48.818;8.976;2023-05-07T12:33:47;19.00;89.50
15937;DHT22;9163;48.818;8.976;2023-05-07T12:36:14;18.90;86.00
15937;DHT22;9163;48.818;8.976;2023-05-07T12:38:42;18.80;47.30
15937;DHT22;9163;48.818;8.976;2023-05-07T12:41:11;18.90;37.80
15937;DHT22;9163;48.818;8.976;2023-05-07T12:43:38;18.90;28.20
15937;DHT22;9163;48.818;8.976;2023-05-07T12:46:06;19.00;28.00
15937;DHT22;9163;48.818;8.976;2023-05-07T12:48:35;19.10;19.60
15937;DHT22;9163;48.818;8.976;2023-05-07T12:51:03;19.10;20.70
15937;DHT22;9163;48.818;8.976;2023-05-07T12:53:32;19.00;24.00
15937;DHT22;9163;48.818;8.976;2023-05-07T12:55:59;18.80;4.10
15937;DHT22;9163;48.818;8.976;2023-05-07T12:58:29;18.60;20.10
15937;DHT22;9163;48.818;8.976;2023-05-07T13:00:58;18.70;43.50
15937;DHT22;9163;48.818;8.976;2023-05-07T13:03:28;18.60;92.10
15937;DHT22;9163;48.818;8.976;2023-05-07T13:05:56;18.50;99.90
15937;DHT22;9163;48.818;8.976;2023-05-07T13:08:29;18.30;99.90
15937;DHT22;9163;48.818;8.976;2023-05-07T13:10:57;18.20;99.90
15937;DHT22;9163;48.818;8.976;2023-05-07T13:13:25;17.90;99.90
15937;DHT22;9163;48.818;8.976;2023-05-07T13:15:54;17.40;99.90
15937;DHT22;9163;48.818;8.976;2023-05-07T13:18:21;17.30;99.90
15937;DHT22;9163;48.818;8.976;2023-05-07T13:20:49;17.20;99.90
15937;DHT22;9163;48.818;8.976;2023-05-07T13:23:17;17.10;99.90
15937;DHT22;9163;48.818;8.976;2023-05-07T13:25:44;16.70;99.90
15937;DHT22;9163;48.818;8.976;2023-05-07T13:28:11;16.50;99.90
15937;DHT22;9163;48.818;8.976;2023-05-07T13:30:39;16.60;99.90
15937;DHT22;9163;48.818;8.976;2023-05-07T13:33:08;16.60;99.90
15937;DHT22;9163;48.818;8.976;2023-05-07T13:35:36;16.50;99.90
15937;DHT22;9163;48.818;8.976;2023-05-07T13:38:03;16.50;99.90
15937;DHT22;9163;48.818;8.976;2023-05-07T13:40:31;16.30;99.90
15937;DHT22;9163;48.818;8.976;2023-05-07T13:42:58;16.40;99.90
15937;DHT22;9163;48.818;8.976;2023-05-07T13:45:28;16.40;99.90
15937;DHT22;9163;48.818;8.976;2023-05-07T13:47:56;16.40;99.90
15937;DHT22;9163;48.818;8.976;2023-05-07T13:50:25;16.40;99.90
15937;DHT22;9163;48.818;8.976;2023-05-07T13:52:55;16.40;99.90
15937;DHT22;9163;48.818;8.976;2023-05-07T13:55:23;16.30;99.90
15937;DHT22;9163;48.818;8.976;2023-05-07T13:57:55;16.30;99.90
15937;DHT22;9163;48.818;8.976;2023-05-07T14:00:23;16.30;99.90
15937;DHT22;9163;48.818;8.976;2023-05-07T14:02:50;16.30;99.90
15937;DHT22;9163;48.818;8.976;2023-05-07T14:05:18;16.30;99.90
15937;DHT22;9163;48.818;8.976;2023-05-07T14:07:46;16.20;99.90
15937;DHT22;9163;48.818;8.976;2023-05-07T14:10:15;16.10;99.90
15937;DHT22;9163;48.818;8.976;2023-05-07T14:12:42;16.00;99.90
15937;DHT22;9163;48.818;8.976;2023-05-07T14:15:09;16.00;99.90
15937;DHT22;9163;48.818;8.976;2023-05-07T14:17:37;15.80;99.90
15937;DHT22;9163;48.818;8.976;2023-05-07T14:20:05;15.70;99.90
15937;DHT22;9163;48.818;8.976;2023-05-07T14:22:33;15.60;99.90
15937;DHT22;9163;48.818;8.976;2023-05-07T14:25:02;15.50;99.90
15937;DHT22;9163;48.818;8.976;2023-05-07T14:27:29;15.50;99.90
15937;DHT22;9163;48.818;8.976;2023-05-07T14:29:56;15.30;99.90
15937;DHT22;9163;48.818;8.976;2023-05-07T14:32:23;15.20;99.90
15937;DHT22;9163;48.818;8.976;2023-05-07T14:34:51;15.20;99.90
15937;DHT22;9163;48.818;8.976;2023-05-07T14:37:18;15.20;99.90
15937;DHT22;9163;48.818;8.976;2023-05-07T14:39:45;15.10;99.90
15937;DHT22;9163;48.818;8.976;2023-05-07T14:42:14;15.00;99.90
15937;DHT22;9163;48.818;8.976;2023-05-07T14:44:41;15.00;99.90
15937;DHT22;9163;48.818;8.976;2023-05-07T14:47:08;15.00;99.90
15937;DHT22;9163;48.818;8.976;2023-05-07T14:49:36;15.10;99.90
15937;DHT22;9163;48.818;8.976;2023-05-07T14:52:03;15.20;99.90
15937;DHT22;9163;48.818;8.976;2023-05-07T14:54:33;15.10;99.90
15937;DHT22;9163;48.818;8.976;2023-05-07T14:57:01;15.10;99.90
15937;DHT22;9163;48.818;8.976;2023-05-07T14:59:30;15.30;99.90
15937;DHT22;9163;48.818;8.976;2023-05-07T15:01:57;15.30;99.90
15937;DHT22;9163;48.818;8.976;2023-05-07T15:04:24;15.40;99.90
15937;DHT22;9163;48.818;8.976;2023-05-07T15:06:52;15.50;99.90
15937;DHT22;9163;48.818;8.976;2023-05-07T15:09:19;15.60;99.90
15937;DHT22;9163;48.818;8.976;2023-05-07T15:11:46;15.60;99.90
15937;DHT22;9163;48.818;8.976;2023-05-07T15:14:14;15.60;99.90
15937;DHT22;9163;48.818;8.976;2023-05-07T15:16:43;15.60;99.90
15937;DHT22;9163;48.818;8.976;2023-05-07T15:19:11;15.80;99.90
15937;DHT22;9163;48.818;8.976;2023-05-07T15:21:38;15.80;99.90
15937;DHT22;9163;48.818;8.976;2023-05-07T15:24:06;16.00;99.90
15937;DHT22;9163;48.818;8.976;2023-05-07T15:26:33;16.10;99.90
15937;DHT22;9163;48.818;8.976;2023-05-07T15:29:00;16.20;99.90
15937;DHT22;9163;48.818;8.976;2023-05-07T15:31:29;16.30;99.90
15937;DHT22;9163;48.818;8.976;2023-05-07T15:33:59;16.30;99.90
15937;DHT22;9163;48.818;8.976;2023-05-07T15:36:27;16.50;99.90
15937;DHT22;9163;48.818;8.976;2023-05-07T15:38:54;16.70;99.90
15937;DHT22;9163;48.818;8.976;2023-05-07T15:41:21;16.90;99.90
15937;DHT22;9163;48.818;8.976;2023-05-07T15:43:50;17.10;99.90
15937;DHT22;9163;48.818;8.976;2023-05-07T15:46:19;17.20;99.90
15937;DHT22;9163;48.818;8.976;2023-05-07T15:48:46;17.30;99.90
15937;DHT22;9163;48.818;8.976;2023-05-07T15:51:15;17.40;99.90
15937;DHT22;9163;48.818;8.976;2023-05-07T15:53:42;17.50;99.90
15937;DHT22;9163;48.818;8.976;2023-05-07T15:56:10;17.40;99.90